Aviation Digital Data Service (ADDS)

Output produced by METARs form (1826 UTC 16 August 2018)
found at http://www.aviationweather.gov/adds/metars/
 
MNBL 161520Z 1618/1718 08008KT 4000 TSRA/DZ SCT016CB SCT060 
     BECMG 1620/1700 6000 VCRA/DZ BKN017
       
MNMG 161520Z 1618/1718 08014G24KT 9999 FEW022 SCT080 
     BECMG 1622/1700 8000 DZ/TSRA FEW020CB SCT021
       
MNPC 161520Z 1618/1718 07010KT 5000 TSRA/DZ FEW014CB BKN016 
     BECMG 1622/1700 VCRA/DZ BKN016TCU